createdAt,value
2022-08-04T00:00:07.741Z,60.10
2022-08-04T00:03:14.907Z,59.60
2022-08-04T00:06:40.791Z,60.80
2022-08-04T00:09:20.182Z,62.20
2022-08-04T00:11:50.389Z,61.00
2022-08-04T00:14:22.481Z,60.60
2022-08-04T00:16:52.539Z,60.80
2022-08-04T00:19:42.060Z,60.50
2022-08-04T00:22:11.657Z,60.80
2022-08-04T00:24:39.904Z,60.40
2022-08-04T00:27:08.814Z,60.50
2022-08-04T00:29:38.946Z,60.60
2022-08-04T00:32:09.205Z,60.50
2022-08-04T00:34:37.660Z,60.70
2022-08-04T00:37:06.853Z,60.70
2022-08-04T00:39:34.957Z,60.80
2022-08-04T00:42:59.152Z,60.90
2022-08-04T00:46:17.515Z,62.70
2022-08-04T00:49:07.347Z,61.90
2022-08-04T00:52:37.923Z,62.10
2022-08-04T00:55:33.470Z,61.70
2022-08-04T00:58:03.252Z,62.00
2022-08-04T01:00:45.246Z,60.90
2022-08-04T01:03:26.185Z,61.40
2022-08-04T01:06:08.221Z,61.80
2022-08-04T01:09:03.245Z,61.20
2022-08-04T01:12:32.290Z,61.10
2022-08-04T01:15:19.904Z,62.70
2022-08-04T01:18:02.543Z,61.50
2022-08-04T01:20:37.616Z,62.60
2022-08-04T01:23:35.871Z,61.60
2022-08-04T01:26:42.190Z,61.50
2022-08-04T01:29:14.198Z,62.20
2022-08-04T01:31:47.503Z,61.70
2022-08-04T01:34:16.888Z,61.60
2022-08-04T01:36:51.925Z,61.80
2022-08-04T01:39:47.222Z,62.30
2022-08-04T01:42:31.703Z,62.30
2022-08-04T01:45:06.809Z,62.30
2022-08-04T01:47:37.735Z,62.30
2022-08-04T01:50:12.159Z,62.30
2022-08-04T01:52:50.349Z,62.70
2022-08-04T01:55:18.472Z,62.40
2022-08-04T01:57:50.678Z,62.30
2022-08-04T02:00:26.948Z,62.30
2022-08-04T02:02:56.091Z,62.50
2022-08-04T02:06:03.540Z,62.40
2022-08-04T02:08:22.810Z,63.00
2022-08-04T02:11:03.626Z,63.30
2022-08-04T02:13:43.440Z,63.60
2022-08-04T02:16:30.406Z,63.00
2022-08-04T02:19:28.163Z,63.60
2022-08-04T02:22:07.418Z,63.70
2022-08-04T02:24:51.149Z,63.50
2022-08-04T02:27:29.965Z,63.90
2022-08-04T02:30:19.624Z,64.20
2022-08-04T02:32:49.295Z,64.00
2022-08-04T02:35:27.843Z,64.10
2022-08-04T02:38:25.640Z,63.90
2022-08-04T02:40:59.196Z,65.30
2022-08-04T02:43:51.642Z,63.70
2022-08-04T02:46:22.711Z,63.70
2022-08-04T02:48:53.079Z,63.90
2022-08-04T02:51:41.320Z,63.60
2022-08-04T02:54:09.578Z,64.60
2022-08-04T02:56:39.149Z,63.70
2022-08-04T02:59:13.786Z,63.60
2022-08-04T03:01:57.328Z,63.80
2022-08-04T03:04:58.653Z,63.60
2022-08-04T03:07:54.819Z,64.80
2022-08-04T03:10:51.490Z,63.60
2022-08-04T03:13:44.749Z,65.40
2022-08-04T03:16:21.292Z,63.80
2022-08-04T03:19:40.457Z,64.10
2022-08-04T03:22:35.124Z,64.90
2022-08-04T03:25:33.206Z,63.60
2022-08-04T03:28:25.209Z,65.10
2022-08-04T03:31:26.301Z,65.90
2022-08-04T03:33:56.378Z,64.90
2022-08-04T03:36:46.825Z,64.50
2022-08-04T03:40:03.176Z,64.50
2022-08-04T03:42:47.675Z,65.00
2022-08-04T03:45:58.278Z,64.40
2022-08-04T03:49:08.309Z,65.60
2022-08-04T03:52:13.177Z,66.10
2022-08-04T03:55:19.563Z,65.20
2022-08-04T03:57:57.781Z,65.90
2022-08-04T04:00:41.263Z,65.00
2022-08-04T04:03:39.333Z,64.60
2022-08-04T04:06:53.805Z,66.00
2022-08-04T04:10:04.995Z,66.30
2022-08-04T04:13:08.634Z,66.80
2022-08-04T04:15:55.462Z,66.40
2022-08-04T04:19:01.398Z,66.00
2022-08-04T04:22:02.088Z,66.30
2022-08-04T04:24:37.797Z,66.00
2022-08-04T04:27:35.226Z,65.20
2022-08-04T04:30:37.216Z,66.70
2022-08-04T04:33:46.032Z,66.30
2022-08-04T04:36:32.489Z,66.50
2022-08-04T04:39:16.194Z,66.00
2022-08-04T04:41:53.750Z,66.20
2022-08-04T04:45:15.169Z,66.10
2022-08-04T04:48:13.889Z,68.10
2022-08-04T04:51:28.091Z,67.90
2022-08-04T04:54:08.952Z,66.50
2022-08-04T04:56:47.724Z,66.90
2022-08-04T04:59:19.423Z,67.50
2022-08-04T05:02:00.989Z,67.00
2022-08-04T05:04:42.575Z,67.60
2022-08-04T05:07:18.242Z,67.50
2022-08-04T05:09:56.668Z,67.20
2022-08-04T05:14:32.196Z,67.50
2022-08-04T05:15:25.511Z,67.00
2022-08-04T05:17:55.775Z,67.10
2022-08-04T05:20:59.156Z,67.30
2022-08-04T05:23:30.007Z,67.50
2022-08-04T05:26:10.837Z,67.20
2022-08-04T05:28:54.003Z,67.20
2022-08-04T05:31:31.615Z,67.20
2022-08-04T05:34:28.269Z,66.80
2022-08-04T05:37:11.743Z,66.90
2022-08-04T05:39:54.598Z,67.10
2022-08-04T05:42:23.428Z,67.20
2022-08-04T05:44:51.402Z,66.70
2022-08-04T05:47:21.650Z,66.70
2022-08-04T05:50:01.199Z,66.60
2022-08-04T05:52:31.240Z,66.50
2022-08-04T05:55:00.791Z,66.30
2022-08-04T05:57:29.696Z,66.40
2022-08-04T06:00:00.242Z,66.40
2022-08-04T06:02:29.657Z,66.50
2022-08-04T06:04:58.138Z,66.30
2022-08-04T06:07:26.757Z,66.20
2022-08-04T06:09:54.924Z,66.20
2022-08-04T06:12:27.372Z,66.00
2022-08-04T06:14:57.797Z,65.70
2022-08-04T06:18:35.446Z,65.40
2022-08-04T06:20:33.115Z,65.30
2022-08-04T06:23:08.050Z,65.00
2022-08-04T06:25:45.339Z,64.70
2022-08-04T06:28:14.235Z,64.10
2022-08-04T06:30:42.159Z,63.90
2022-08-04T06:33:24.385Z,63.60
2022-08-04T06:35:56.241Z,63.40
2022-08-04T06:38:25.209Z,63.10
2022-08-04T06:40:54.925Z,62.70
2022-08-04T06:43:23.754Z,63.10
2022-08-04T06:45:56.230Z,62.80
2022-08-04T06:48:33.202Z,62.50
2022-08-04T06:51:31.390Z,62.30
2022-08-04T06:53:49.739Z,62.00
2022-08-04T06:56:19.745Z,61.80
2022-08-04T06:58:52.820Z,61.30
2022-08-04T07:01:22.488Z,61.20
2022-08-04T07:03:50.796Z,61.00
2022-08-04T07:06:19.148Z,60.50
2022-08-04T07:08:46.711Z,60.60
2022-08-04T07:11:14.779Z,60.40
2022-08-04T07:13:45.185Z,60.20
2022-08-04T07:16:17.501Z,60.00
2022-08-04T07:18:45.126Z,59.60
2022-08-04T07:21:20.010Z,59.50
2022-08-04T07:23:47.284Z,59.20
2022-08-04T07:26:16.680Z,58.90
2022-08-04T07:28:44.104Z,58.80
2022-08-04T07:31:16.755Z,58.60
2022-08-04T07:34:17.120Z,58.50
2022-08-04T07:36:52.933Z,58.40
2022-08-04T07:39:29.722Z,58.30
2022-08-04T07:42:01.421Z,58.20
2022-08-04T07:44:33.542Z,57.90
2022-08-04T07:47:02.982Z,57.60
2022-08-04T07:49:55.700Z,57.30
2022-08-04T07:52:19.242Z,57.00
2022-08-04T07:54:46.909Z,56.80
2022-08-04T07:57:19.559Z,56.50
2022-08-04T08:00:01.428Z,56.40
2022-08-04T08:02:29.610Z,56.20
2022-08-04T08:04:57.061Z,56.10
2022-08-04T08:07:24.470Z,56.00
2022-08-04T08:09:51.627Z,55.80
2022-08-04T08:12:36.713Z,55.70
2022-08-04T08:15:13.349Z,55.70
2022-08-04T08:17:57.964Z,55.40
2022-08-04T08:20:29.800Z,55.70
2022-08-04T08:22:58.274Z,55.50
2022-08-04T08:25:25.553Z,55.30
2022-08-04T08:27:55.806Z,55.10
2022-08-04T08:30:31.226Z,54.60
2022-08-04T08:33:05.930Z,54.50
2022-08-04T08:36:04.975Z,54.30
2022-08-04T08:38:56.015Z,53.90
2022-08-04T08:41:56.641Z,53.50
2022-08-04T08:45:03.747Z,53.80
2022-08-04T08:48:05.982Z,53.60
2022-08-04T08:51:13.904Z,53.60
2022-08-04T08:54:12.612Z,53.30
2022-08-04T08:56:55.272Z,53.30
2022-08-04T08:59:52.386Z,53.60
2022-08-04T09:02:35.433Z,53.90
2022-08-04T09:05:54.466Z,52.80
2022-08-04T09:08:55.291Z,52.90
2022-08-04T09:11:30.376Z,53.40
2022-08-04T09:14:18.150Z,53.70
2022-08-04T09:16:56.824Z,53.30
2022-08-04T09:19:40.478Z,53.00
2022-08-04T09:22:21.389Z,53.10
2022-08-04T09:25:01.477Z,52.80
2022-08-04T09:27:45.329Z,52.70
2022-08-04T09:30:18.877Z,52.30
2022-08-04T09:33:22.621Z,52.30
2022-08-04T09:36:26.009Z,51.70
2022-08-04T09:39:10.819Z,51.80
2022-08-04T09:42:04.702Z,51.50
2022-08-04T09:45:07.015Z,51.50
2022-08-04T09:47:41.088Z,51.50
2022-08-04T09:50:39.336Z,51.90
2022-08-04T09:53:53.646Z,51.60
2022-08-04T09:56:35.863Z,51.60
2022-08-04T09:59:50.068Z,51.50
2022-08-04T10:02:22.815Z,50.90
2022-08-04T10:04:53.696Z,51.30
2022-08-04T10:07:59.738Z,51.00
2022-08-04T10:10:53.534Z,50.20
2022-08-04T10:13:44.853Z,50.00
2022-08-04T10:16:23.912Z,49.70
2022-08-04T10:19:26.636Z,49.80
2022-08-04T10:22:29.961Z,49.80
2022-08-04T10:25:37.607Z,50.10
2022-08-04T10:28:20.944Z,49.60
2022-08-04T10:30:58.828Z,49.80
2022-08-04T10:33:34.467Z,49.50
2022-08-04T10:36:08.202Z,49.40
2022-08-04T10:39:06.579Z,49.40
2022-08-04T10:41:54.851Z,48.60
2022-08-04T10:45:10.885Z,49.10
2022-08-04T10:47:53.311Z,48.70
2022-08-04T10:50:24.825Z,48.80
2022-08-04T10:53:19.953Z,48.90
2022-08-04T10:56:06.222Z,48.40
2022-08-04T10:58:55.670Z,48.40
2022-08-04T11:01:59.723Z,48.10
2022-08-04T11:04:48.613Z,48.80
2022-08-04T11:07:18.250Z,48.70
2022-08-04T11:09:46.233Z,48.60
2022-08-04T11:12:26.947Z,48.30
2022-08-04T11:15:00.788Z,47.80
2022-08-04T11:17:44.534Z,47.80
2022-08-04T11:20:34.955Z,47.40
2022-08-04T11:23:16.309Z,47.70
2022-08-04T11:26:20.283Z,46.60
2022-08-04T11:29:07.245Z,46.40
2022-08-04T11:31:41.384Z,47.00
2022-08-04T11:34:24.357Z,46.70
2022-08-04T11:37:13.917Z,46.30
2022-08-04T11:39:54.478Z,46.50
2022-08-04T11:42:32.248Z,46.80
2022-08-04T11:45:11.012Z,46.10
2022-08-04T11:47:50.020Z,45.70
2022-08-04T11:50:39.606Z,45.80
2022-08-04T11:53:08.695Z,45.30
2022-08-04T11:56:08.340Z,45.70
2022-08-04T11:58:26.658Z,45.60
2022-08-04T12:01:24.000Z,45.50
2022-08-04T12:04:49.304Z,45.00
2022-08-04T12:08:04.604Z,45.40
2022-08-04T12:10:49.753Z,45.10
2022-08-04T12:14:00.480Z,45.50
2022-08-04T12:16:45.795Z,44.50
2022-08-04T12:20:31.699Z,44.30
2022-08-04T12:22:58.114Z,43.80
2022-08-04T12:25:44.462Z,44.80
2022-08-04T12:29:08.636Z,43.80
2022-08-04T12:31:46.142Z,44.10
2022-08-04T12:34:40.898Z,44.00
2022-08-04T12:37:27.264Z,43.90
2022-08-04T12:40:28.219Z,44.40
2022-08-04T12:43:15.704Z,44.40
2022-08-04T12:45:51.478Z,43.40
2022-08-04T12:48:21.641Z,43.80
2022-08-04T12:50:59.779Z,44.00
2022-08-04T12:53:56.220Z,43.60
2022-08-04T12:56:28.638Z,43.90
2022-08-04T12:59:05.797Z,43.80
2022-08-04T13:02:09.749Z,43.00
2022-08-04T13:04:29.513Z,43.50
2022-08-04T13:07:13.472Z,43.30
2022-08-04T13:09:41.239Z,43.10
2022-08-04T13:12:19.667Z,43.90
2022-08-04T13:14:52.215Z,42.90
2022-08-04T13:17:20.008Z,43.30
2022-08-04T13:19:56.384Z,43.10
2022-08-04T13:22:28.693Z,42.30
2022-08-04T13:26:41.390Z,41.80
2022-08-04T13:27:48.817Z,41.70
2022-08-04T13:30:23.625Z,42.10
2022-08-04T13:33:00.981Z,42.30
2022-08-04T13:35:55.676Z,42.20
2022-08-04T13:38:19.135Z,42.50
2022-08-04T13:40:47.373Z,42.20
2022-08-04T13:44:16.955Z,42.20
2022-08-04T13:46:32.435Z,40.30
2022-08-04T13:51:59.070Z,41.40
2022-08-04T13:54:42.668Z,42.00
2022-08-04T13:57:20.110Z,41.90
2022-08-04T13:59:53.538Z,41.80
2022-08-04T14:03:23.446Z,41.70
2022-08-04T14:06:24.013Z,41.60
2022-08-04T14:09:01.567Z,41.00
2022-08-04T14:12:08.984Z,41.70
2022-08-04T14:14:30.600Z,41.40
2022-08-04T14:17:19.660Z,41.80
2022-08-04T14:19:51.575Z,41.40
2022-08-04T14:22:30.308Z,41.80
2022-08-04T14:25:15.678Z,41.90
2022-08-04T14:27:56.355Z,41.80
2022-08-04T14:30:33.207Z,41.80
2022-08-04T14:34:04.007Z,41.70
2022-08-04T14:36:01.739Z,41.50
2022-08-04T14:38:51.898Z,42.00
2022-08-04T14:41:29.328Z,41.90
2022-08-04T14:44:03.859Z,41.70
2022-08-04T14:46:36.381Z,41.40
2022-08-04T14:49:13.068Z,41.40
2022-08-04T14:52:01.769Z,41.00
2022-08-04T14:54:34.798Z,41.40
2022-08-04T14:57:08.530Z,40.90
2022-08-04T15:00:00.740Z,41.30
2022-08-04T15:02:30.143Z,41.20
2022-08-04T15:04:59.452Z,41.20
2022-08-04T15:07:46.833Z,40.90
2022-08-04T15:10:14.152Z,41.00
2022-08-04T15:12:41.727Z,40.60
2022-08-04T15:15:34.138Z,40.40
2022-08-04T15:17:57.119Z,40.20
2022-08-04T15:20:25.620Z,39.90
2022-08-04T15:22:53.757Z,40.00
2022-08-04T15:25:21.146Z,40.00
2022-08-04T15:27:51.554Z,39.80
2022-08-04T15:30:19.311Z,39.60
2022-08-04T15:32:57.222Z,39.60
2022-08-04T15:35:39.119Z,39.30
2022-08-04T15:38:10.768Z,39.50
2022-08-04T15:41:21.415Z,39.60
2022-08-04T15:44:25.588Z,39.50
2022-08-04T15:47:04.788Z,39.80
2022-08-04T15:49:33.744Z,39.60
2022-08-04T15:52:22.011Z,39.50
2022-08-04T15:55:26.055Z,39.50
2022-08-04T15:58:01.804Z,39.60
2022-08-04T16:00:32.705Z,39.80
2022-08-04T16:03:01.751Z,39.50
2022-08-04T16:05:30.823Z,39.10
2022-08-04T16:08:14.622Z,38.90
2022-08-04T16:10:45.157Z,38.70
2022-08-04T16:13:20.767Z,38.50
2022-08-04T16:16:03.165Z,38.50
2022-08-04T16:18:30.939Z,37.70
2022-08-04T16:21:03.638Z,38.20
2022-08-04T16:23:57.015Z,37.90
2022-08-04T16:26:38.198Z,37.50
2022-08-04T16:29:34.301Z,37.00
2022-08-04T16:32:26.491Z,36.90
2022-08-04T16:35:05.496Z,36.80
2022-08-04T16:37:39.049Z,36.70
2022-08-04T16:40:41.172Z,36.80
2022-08-04T16:43:17.854Z,36.40
2022-08-04T16:45:52.704Z,36.40
2022-08-04T16:48:23.008Z,36.70
2022-08-04T16:51:06.869Z,36.80
2022-08-04T16:54:03.054Z,36.60
2022-08-04T16:56:35.357Z,36.50
2022-08-04T16:59:10.482Z,36.50
2022-08-04T17:01:47.121Z,35.90
2022-08-04T17:04:15.101Z,36.10
2022-08-04T17:06:48.574Z,35.90
2022-08-04T17:09:18.878Z,35.60
2022-08-04T17:11:48.408Z,35.40
2022-08-04T17:14:28.985Z,35.30
2022-08-04T17:17:02.051Z,34.90
2022-08-04T17:19:29.396Z,34.90
2022-08-04T17:22:05.847Z,35.00
2022-08-04T17:24:38.139Z,34.80
2022-08-04T17:28:08.476Z,34.70
2022-08-04T17:29:54.343Z,34.70
2022-08-04T17:32:23.062Z,34.70
2022-08-04T17:34:57.296Z,34.60
2022-08-04T17:37:53.263Z,34.60
2022-08-04T17:40:18.525Z,34.60
2022-08-04T17:44:04.255Z,34.70
2022-08-04T17:46:28.526Z,34.50
2022-08-04T17:49:17.173Z,34.70
2022-08-04T17:52:04.632Z,34.70
2022-08-04T17:54:38.998Z,34.90
2022-08-04T18:00:19.531Z,34.90
2022-08-04T18:02:54.718Z,35.20
2022-08-04T18:05:50.338Z,35.10
2022-08-04T18:08:35.375Z,35.20
2022-08-04T18:11:05.333Z,35.30
2022-08-04T18:13:42.843Z,35.40
2022-08-04T18:22:09.072Z,36.40
2022-08-04T18:24:55.807Z,36.40
2022-08-04T18:27:30.677Z,36.90
2022-08-04T18:30:34.532Z,37.20
2022-08-04T18:33:10.554Z,37.70
2022-08-04T18:36:36.759Z,38.10
2022-08-04T18:38:24.347Z,38.60
2022-08-04T18:40:53.186Z,38.80
2022-08-04T18:43:27.936Z,39.30
2022-08-04T18:45:55.889Z,39.80
2022-08-04T18:48:35.951Z,40.10
2022-08-04T18:51:22.318Z,40.30
2022-08-04T18:53:58.959Z,40.60
2022-08-04T18:56:32.909Z,40.80
2022-08-04T18:59:10.173Z,41.50
2022-08-04T19:02:12.907Z,41.70
2022-08-04T19:04:33.555Z,41.80
2022-08-04T19:07:28.791Z,41.90
2022-08-04T19:09:54.147Z,42.40
2022-08-04T19:12:26.580Z,42.50
2022-08-04T19:14:58.829Z,42.60
2022-08-04T19:17:56.817Z,42.90
2022-08-04T19:20:25.273Z,43.30
2022-08-04T19:24:30.583Z,43.60
2022-08-04T19:25:59.558Z,43.90
2022-08-04T19:28:33.955Z,44.10
2022-08-04T19:31:04.187Z,44.30
2022-08-04T19:33:58.157Z,44.80
2022-08-04T19:36:20.081Z,45.10
2022-08-04T19:38:47.279Z,45.30
2022-08-04T19:41:18.208Z,45.70
2022-08-04T19:43:47.224Z,45.80
2022-08-04T19:46:17.770Z,46.10
2022-08-04T19:48:49.178Z,46.40
2022-08-04T19:51:38.872Z,46.50
2022-08-04T19:54:17.186Z,46.50
2022-08-04T19:56:51.111Z,46.70
2022-08-04T19:59:18.364Z,47.00
2022-08-04T20:01:46.132Z,47.30
2022-08-04T20:04:14.946Z,47.60
2022-08-04T20:06:42.982Z,47.90
2022-08-04T20:09:24.505Z,47.90
2022-08-04T20:11:53.031Z,48.10
2022-08-04T20:14:22.860Z,48.30
2022-08-04T20:16:59.087Z,48.50
2022-08-04T20:19:26.197Z,48.70
2022-08-04T20:21:56.536Z,48.80
2022-08-04T20:24:40.156Z,49.00
2022-08-04T20:27:22.071Z,49.10
2022-08-04T20:29:51.859Z,49.50
2022-08-04T20:32:25.733Z,49.80
2022-08-04T20:34:55.986Z,50.00
2022-08-04T20:37:55.103Z,50.10
2022-08-04T20:40:13.482Z,50.30
2022-08-04T20:42:40.673Z,50.30
2022-08-04T20:45:16.502Z,50.60
2022-08-04T20:47:53.401Z,50.70
2022-08-04T20:50:29.908Z,51.00
2022-08-04T20:52:58.667Z,51.20
2022-08-04T20:55:29.791Z,51.40
2022-08-04T21:00:45.093Z,51.60
2022-08-04T21:03:20.816Z,51.60
2022-08-04T21:06:06.503Z,51.90
2022-08-04T21:08:33.633Z,52.10
2022-08-04T21:11:00.793Z,52.10
2022-08-04T21:13:50.849Z,52.30
2022-08-04T21:16:53.873Z,52.50
2022-08-04T21:19:04.033Z,52.30
2022-08-04T21:21:35.369Z,52.50
2022-08-04T21:24:03.032Z,52.90
2022-08-04T21:26:31.767Z,53.00
2022-08-04T21:28:59.094Z,53.10
2022-08-04T21:31:26.866Z,53.30
2022-08-04T21:33:54.887Z,53.40
2022-08-04T21:36:22.302Z,53.60
2022-08-04T21:38:54.730Z,53.80
2022-08-04T21:41:24.923Z,54.20
2022-08-04T21:43:54.413Z,54.20
2022-08-04T21:46:21.567Z,54.40
2022-08-04T21:48:49.377Z,54.50
2022-08-04T21:51:56.775Z,54.50
2022-08-04T21:54:10.016Z,54.70
2022-08-04T21:56:42.742Z,54.90
2022-08-04T21:59:28.480Z,55.00
2022-08-04T22:04:48.967Z,55.10
2022-08-04T22:07:16.946Z,55.00
2022-08-04T22:10:00.509Z,55.30
2022-08-04T22:12:30.901Z,55.50
2022-08-04T22:15:01.341Z,56.00
2022-08-04T22:17:48.526Z,56.00
2022-08-04T22:20:28.155Z,56.00
2022-08-04T22:23:00.112Z,56.20
2022-08-04T22:25:33.589Z,56.30
2022-08-04T22:28:07.868Z,56.40
2022-08-04T22:30:37.795Z,56.30
2022-08-04T22:33:08.301Z,56.40
2022-08-04T22:35:48.880Z,56.60
2022-08-04T22:38:29.047Z,56.70
2022-08-04T22:41:13.441Z,56.70
2022-08-04T22:43:42.096Z,57.50
2022-08-04T22:46:24.522Z,57.10
2022-08-04T22:48:52.763Z,57.20
2022-08-04T22:51:21.146Z,57.20
2022-08-04T22:53:51.012Z,57.30
2022-08-04T22:56:37.374Z,57.30
2022-08-04T22:59:10.279Z,57.40
2022-08-04T23:01:59.710Z,57.40
2022-08-04T23:04:29.279Z,57.80
2022-08-04T23:06:56.667Z,58.20
2022-08-04T23:09:49.148Z,58.20
2022-08-04T23:12:26.229Z,58.40
2022-08-04T23:14:55.872Z,58.50
2022-08-04T23:17:24.502Z,58.80
2022-08-04T23:19:57.601Z,58.70
2022-08-04T23:22:41.254Z,58.70
2022-08-04T23:25:15.696Z,59.00
2022-08-04T23:27:50.966Z,59.10
2022-08-04T23:30:21.855Z,59.20
2022-08-04T23:32:53.401Z,59.10
2022-08-04T23:35:22.460Z,59.30
2022-08-04T23:37:57.213Z,59.50
2022-08-04T23:40:33.962Z,59.50
2022-08-04T23:43:12.142Z,59.80
2022-08-04T23:46:06.454Z,59.80
2022-08-04T23:48:36.680Z,59.80
2022-08-04T23:51:14.058Z,59.80
2022-08-04T23:54:01.950Z,60.50
2022-08-04T23:56:33.083Z,59.80
2022-08-04T23:59:03.883Z,59.90
